Latest Coastal Weather Observations for Melbourne (Olympic Park)

IDV60701

Issued at 3:11 am EDT Friday 22 November 2019 (issued every 10 minutes, with the page automatically refreshed every 10 minutes)

About coastal observations | Map of coastal stations | Coastal observations for VIC | Marine services | Other Formats
Station Details ID: 086338 Name: MELBOURNE (OLYMPIC PARK) Lat: -37.83 Lon: 144.98 Height: 7.53 m
Data from the previous 72 hours. | See also: Recent months at Melbourne (Olympic Park)
Date/Time
EDT
Wind Sea
Height
m
Swell Vis
km
Cloud Weather Temp
°C
Press
hPa
Rain since
9am
mm
Dir  Spd
kts
Gust
kts
Height
m
Period
s
Dir
22/03:00am S 6 11 - - - - 10 - - 14.3 1013.6 0.0
22/02:30am S 5 9 - - - - 10 - - 14.4 1013.6 0.0
22/02:00am S 7 12 - - - - 10 - - 14.7 1013.7 0.0
22/01:30am S 4 7 - - - - 10 - - 15.0 1014.2 0.0
22/01:00am S 6 13 - - - - 10 - - 15.0 1014.5 0.0
22/12:30am S 7 11 - - - - 10 - - 14.9 1014.8 0.0
22/12:00am SSE 7 15 - - - - 10 - - 15.0 1015.1 0.0
 
Date/Time
EDT
Wind Sea
Height
m
Swell Vis
km
Cloud Weather Temp
°C
Press
hPa
Rain since
9am
mm
Dir  Spd
kts
Gust
kts
Height
m
Period
s
Dir
21/11:30pm S 7 13 - - - - 10 - - 15.0 1014.2 0.0
21/11:00pm S 8 15 - - - - 10 - - 15.3 1013.8 0.0
21/10:30pm S 6 13 - - - - 10 - - 15.3 1013.3 0.0
21/10:00pm S 8 15 - - - - 10 - - 15.4 1012.7 0.0
21/09:30pm SSE 6 13 - - - - 10 - - 15.5 1012.5 0.0
21/09:00pm SSE 7 14 - - - - 10 - - 15.8 1011.6 0.0
21/08:30pm SSE 5 9 - - - - 10 - - 16.6 1011.2 0.0
21/08:00pm SE 6 11 - - - - 10 - - 17.0 1010.6 0.0
21/07:30pm S 5 9 - - - - 10 - - 17.5 1011.0 0.0
21/07:00pm SSW 4 10 - - - - 10 - - 17.8 1009.9 0.0
21/06:30pm SSW 7 14 - - - - 10 - - 18.1 1009.1 0.0
21/06:00pm WSW 6 11 - - - - 10 - - 18.3 1009.6 0.0
21/05:30pm SW 9 17 - - - - 10 - - 18.4 1008.8 0.0
21/05:24pm SW 8 17 - - - - 10 - - 18.4 1008.9 0.0
21/05:00pm SW 10 21 - - - - 10 - - 19.0 1006.9 0.0
21/04:30pm SSW 13 26 - - - - 10 - - 20.0 1005.2 0.0
21/04:00pm SW 9 23 - - - - 10 - - 24.3 1004.1 0.0
21/03:30pm W 9 21 - - - - 10 - - 26.1 1002.1 0.0
21/03:10pm WSW 11 25 - - - - 10 - - 28.3 1001.3 0.0
21/03:00pm WSW 11 30 - - - - 10 - - 30.6 999.2 0.0
21/02:54pm WNW 12 30 - - - - 10 - - 32.3 999.1 0.0
21/02:50pm NW 14 29 - - - - 10 - - 37.4 998.4 0.0
21/02:30pm NNW 23 44 - - - - 10 - - 39.4 997.4 0.0
21/02:00pm NNW 22 42 - - - - 10 - - 40.9 997.3 0.0
21/01:59pm N 22 42 - - - - 10 - - 40.9 997.3 0.0
21/01:51pm N 18 32 - - - - 10 - - 40.0 997.5 0.0
21/01:30pm NNE 17 31 - - - - 10 - - 38.4 997.9 0.0
21/01:00pm N 16 29 - - - - 10 - - 38.2 999.2 0.0
21/12:30pm N 16 31 - - - - 10 - - 37.4 999.9 0.0
21/12:00pm N 18 29 - - - - 10 - - 36.1 1000.7 0.0
21/11:30am N 18 29 - - - - 10 - - 35.1 1000.9 0.0
21/11:00am N 21 32 - - - - 10 - - 34.5 1001.2 0.0
21/10:30am N 22 32 - - - - 10 - - 33.9 1001.6 0.0
21/10:00am N 20 33 - - - - 10 - - 33.5 1001.8 0.0
21/09:30am N 19 32 - - - - 10 - - 33.0 1001.9 0.0
21/09:01am N 17 27 - - - - 10 - - 32.4 1002.2 0.0
21/09:00am N 18 27 - - - - 10 - - 32.3 1002.2 0.0
21/08:30am N 16 26 - - - - 10 - - 31.3 1002.5 0.0
21/08:10am N 15 28 - - - - 10 - - 31.1 1002.8 0.0
21/08:00am N 15 23 - - - - 10 - - 30.8 1002.8 0.0
21/07:30am N 11 17 - - - - 10 - - 29.3 1002.8 0.0
21/07:00am N 8 12 - - - - 10 - - 27.2 1002.9 0.0
21/06:30am N 9 13 - - - - 10 - - 26.7 1003.0 0.0
21/06:00am N 9 13 - - - - 10 - - 26.9 1002.8 0.0
21/05:30am N 9 15 - - - - 10 - - 28.5 1002.5 0.0
21/05:00am N 9 16 - - - - 10 - - 29.5 1002.5 0.0
21/04:30am N 7 14 - - - - 10 - - 28.8 1002.6 0.0
21/04:00am NNE 5 7 - - - - 10 - - 27.6 1002.9 0.0
21/03:30am N 6 9 - - - - 10 - - 28.4 1003.5 0.0
21/03:00am N 9 15 - - - - 10 - - 29.0 1003.7 0.0
21/02:30am NNE 6 10 - - - - 10 - - 28.7 1003.8 0.0
21/02:00am NNE 6 8 - - - - 10 - - 28.5 1004.2 0.0
21/01:30am NNE 5 6 - - - - 10 - - 27.1 1004.5 0.0
21/01:00am NNE 3 5 - - - - 10 - - 27.6 1004.7 0.0
21/12:30am NNE 6 10 - - - - 10 - - 28.6 1005.0 0.0
21/12:00am NNE 6 10 - - - - 10 - - 28.9 1005.1 0.0
 
Date/Time
EDT
Wind Sea
Height
m
Swell Vis
km
Cloud Weather Temp
°C
Press
hPa
Rain since
9am
mm
Dir  Spd
kts
Gust
kts
Height
m
Period
s
Dir
20/11:30pm NE 5 9 - - - - 10 - - 28.8 1005.2 0.0
20/11:00pm N 3 5 - - - - 10 - - 27.4 1005.5 0.0
20/10:30pm NNE 6 8 - - - - 10 - - 28.3 1005.9 0.0
20/10:00pm NNE 5 7 - - - - 10 - - 29.1 1006.0 0.0
20/09:30pm N 5 10 - - - - 10 - - 29.7 1006.1 0.0
20/09:00pm N 6 11 - - - - 10 - - 29.8 1006.2 0.0
20/08:30pm N 6 9 - - - - 10 - - 31.2 1006.3 0.0
20/08:00pm N 7 11 - - - - 10 - - 32.4 1006.4 0.0
20/07:30pm N 8 12 - - - - 10 - - 33.3 1006.5 0.0
20/07:00pm N 9 13 - - - - 10 - - 33.7 1006.5 0.0
20/06:30pm N 9 13 - - - - 10 - - 33.9 1006.5 0.0
20/06:00pm N 9 14 - - - - 10 - - 34.2 1006.6 0.0
20/05:30pm N 8 16 - - - - 10 - - 34.1 1006.8 0.0
20/05:00pm N 8 11 - - - - 10 - - 34.0 1007.2 0.0
20/04:30pm N 9 18 - - - - 10 - - 33.8 1007.6 0.0
20/04:00pm N 7 14 - - - - 10 - - 33.7 1007.9 0.0
20/03:30pm E 5 10 - - - - 10 - - 33.1 1008.6 0.0
20/03:00pm NE 7 13 - - - - 10 - - 31.9 1009.2 0.0
20/02:30pm ENE 5 10 - - - - 10 - - 30.7 1009.9 0.0
20/02:00pm SSW 4 6 - - - - 10 - - 27.5 1010.4 0.0
20/01:30pm SSW 4 6 - - - - 10 - - 26.3 1011.1 0.0
20/01:00pm S 3 6 - - - - 10 - - 26.1 1011.6 0.0
20/12:30pm S 4 7 - - - - 10 - - 23.4 1012.5 0.0
20/12:00pm SE 2 5 - - - - 10 - - 23.3 1012.7 0.0
20/11:30am NNE 3 6 - - - - 10 - - 21.7 1013.5 0.0
20/11:00am NNW 5 8 - - - - 10 - - 19.7 1013.2 0.0
20/10:30am NNE 3 6 - - - - 10 - - 18.7 1013.3 0.0
20/10:00am NW 1 4 - - - - 10 - - 17.2 1013.9 0.0
20/09:30am SSE 3 6 - - - - 10 - - 15.7 1014.4 0.0
20/09:00am NE 2 5 - - - - 10 - - 14.1 1013.8 0.0
20/08:30am N 6 9 - - - - 10 - - 12.9 1013.7 0.0
20/08:00am NNE 4 7 - - - - 10 - - 12.3 1013.8 0.0
20/07:30am N 5 9 - - - - 10 - - 11.7 1014.0 0.0
20/07:00am NNW 4 5 - - - - 10 - - 11.1 1014.3 0.0
20/06:30am NNE 5 6 - - - - 10 - - 9.8 1013.9 0.0
20/06:00am NNE 4 6 - - - - 10 - - 10.0 1014.4 0.0
20/05:30am NE 1 4 - - - - 10 - - 9.9 1014.3 0.0
20/05:00am SSE 1 4 - - - - 10 - - 9.6 1014.4 0.0
20/04:30am CALM 0 0 - - - - 10 - - 9.7 1014.5 0.0
20/04:00am CALM 0 0 - - - - 10 - - 9.9 1014.8 0.0
20/03:30am CALM 0 0 - - - - 10 - - 9.9 1014.6 0.0
20/03:00am CALM 0 0 - - - - 10 - - 10.2 1015.2 0.0
20/02:30am S 1 4 - - - - 10 - - 10.6 1015.4 0.0
20/02:00am CALM 0 3 - - - - 10 - - 10.8 1015.7 0.0
20/01:30am S 1 4 - - - - 10 - - 11.1 1016.0 0.0
20/01:00am CALM 0 3 - - - - 10 - - 11.6 1016.6 0.0
20/12:30am S 2 4 - - - - 10 - - 11.8 1016.8 0.0
20/12:00am S 3 5 - - - - 10 - - 11.9 1016.8 0.0
 
Date/Time
EDT
Wind Sea
Height
m
Swell Vis
km
Cloud Weather Temp
°C
Press
hPa
Rain since
9am
mm
Dir  Spd
kts
Gust
kts
Height
m
Period
s
Dir
19/11:30pm S 3 6 - - - - 10 - - 12.3 1017.0 0.0
19/11:00pm SSE 4 7 - - - - 10 - - 12.6 1016.6 0.0
19/10:30pm SSE 5 9 - - - - 10 - - 13.0 1016.3 0.0
19/10:00pm SSE 5 9 - - - - 10 - - 13.4 1015.9 0.0
19/09:30pm SSE 5 9 - - - - 10 - - 14.0 1015.9 0.0
19/09:00pm SSE 6 11 - - - - 10 - - 14.7 1015.8 0.0
19/08:30pm S 5 9 - - - - 10 - - 15.2 1015.9 0.0
19/08:00pm SSW 5 10 - - - - 10 - - 15.5 1015.4 0.0
19/07:30pm SSW 7 11 - - - - 10 - - 15.7 1015.3 0.0
19/07:00pm S 7 12 - - - - 10 - - 16.0 1015.0 0.0
19/06:30pm SSW 7 14 - - - - 10 - - 17.0 1014.5 0.0
19/06:00pm SSW 9 14 - - - - 10 - - 16.9 1014.6 0.0
19/05:30pm SSW 8 13 - - - - 10 - - 17.9 1014.3 0.0
19/05:00pm S 6 11 - - - - 10 - - 18.5 1014.3 0.0
19/04:30pm SSW 7 11 - - - - 10 - - 17.6 1014.4 0.0
19/04:00pm S 8 15 - - - - 10 - - 16.8 1014.5 0.0
19/03:30pm SSW 7 14 - - - - 10 - - 17.9 1014.4 0.0
19/03:00pm SSW 7 13 - - - - 10 - - 17.4 1014.3 0.0
19/02:30pm S 7 12 - - - - 10 - - 17.2 1014.4 0.0
19/02:00pm SSW 7 11 - - - - 10 - - 17.5 1014.4 0.0
19/01:30pm SSW 7 14 - - - - 10 - - 17.7 1014.4 0.0
19/01:00pm S 6 10 - - - - 10 - - 17.6 1014.5 0.0
19/12:30pm S 7 13 - - - - 10 - - 17.0 1014.7 0.0
19/12:00pm S 7 13 - - - - 10 - - 17.3 1014.8 0.0
19/11:30am S 7 13 - - - - 10 - - 16.5 1014.8 0.0
19/11:00am SSW 7 12 - - - - 10 - - 16.7 1014.3 0.0
19/10:30am S 7 14 - - - - 10 - - 16.4 1014.2 0.0
19/10:00am SSW 7 12 - - - - 10 - - 16.0 1014.0 0.0
19/09:30am SW 4 8 - - - - 10 - - 15.8 1014.0 0.0
19/09:00am SSW 5 10 - - - - 10 - - 15.6 1013.8 0.0
19/08:30am SSW 5 8 - - - - 10 - - 15.2 1013.4 0.0
19/08:00am S 1 3 - - - - 10 - - 14.8 1012.8 0.0
19/07:30am CALM 0 3 - - - - 10 - - 13.3 1012.5 0.0
19/07:00am ENE 1 3 - - - - 10 - - 12.3 1012.5 0.0
19/06:30am CALM 0 1 - - - - 10 - - 11.7 1012.2 0.0
19/06:00am CALM 0 0 - - - - 10 - - 11.6 1011.9 0.0
19/05:30am CALM 0 3 - - - - 10 - - 11.8 1011.6 0.0
19/05:00am ENE 1 5 - - - - 10 - - 11.6 1011.4 0.0
19/04:30am CALM 0 0 - - - - 10 - - 11.5 1011.3 0.0
19/04:00am CALM 0 0 - - - - 10 - - 11.6 1011.1 0.0
19/03:30am CALM 0 0 - - - - 10 - - 11.6 1011.2 0.0

Other formats

Comma delimited format used in spreadsheet applications
http://www.bom.gov.au/fwo/IDV60701/IDV60701.95936.axf

JavaScript Object Notation format (JSON) in row-major order
http://www.bom.gov.au/fwo/IDV60701/IDV60701.95936.json

Data quality

Most of these data are generated automatically and are frequently updated. Quality checks on data are not normally performed. It is possible for incorrect values to appear. Refer to information at About Latest Weather Observations and please check the disclaimer before using these data.